Time;durP1;ratioP1;P1;durP2;ratioP2;P2;SDS_P1;SDS_P2;PMS_P1;PMS_P2;Temp;Humidity;BMP_temperature;BMP_pressure;BME280_temperature;BME280_humidity;BME280_pressure;Samples;Min_cycle;Max_cycle;Signal;HPM_P1;HPM_P2
2021/04/06 00:00:59;;;;;;;5.28;1.35;;;-0.50;99.90;;;;;;4991401;28;20185;-82
2021/04/06 00:03:29;;;;;;;2.90;1.23;;;-0.50;99.90;;;;;;4995018;28;20205;-82
2021/04/06 00:06:04;;;;;;;2.90;1.00;;;-0.50;99.90;;;;;;4990597;28;20807;-82
2021/04/06 00:08:31;;;;;;;5.00;1.30;;;-0.50;99.90;;;;;;4993639;28;20180;-82
2021/04/06 00:11:03;;;;;;;3.92;2.03;;;-0.50;99.90;;;;;;4970689;28;20216;-82
2021/04/06 00:13:33;;;;;;;3.13;1.05;;;-0.50;99.90;;;;;;4969820;28;20565;-82
2021/04/06 00:16:03;;;;;;;1.20;1.10;;;-0.40;99.90;;;;;;4992713;28;20185;-82
2021/04/06 00:18:29;;;;;;;3.85;1.23;;;-0.50;99.90;;;;;;4990440;28;20618;-82
2021/04/06 00:20:59;;;;;;;2.85;1.30;;;-0.50;99.90;;;;;;4975046;28;20273;-82
2021/04/06 00:23:27;;;;;;;1.30;1.20;;;-0.50;99.90;;;;;;4980469;28;20184;-82
2021/04/06 00:25:54;;;;;;;2.47;1.35;;;-0.60;99.90;;;;;;4987742;28;21347;-82
2021/04/06 00:28:27;;;;;;;1.50;1.00;;;-0.70;99.90;;;;;;4973428;28;20605;-82
2021/04/06 00:30:54;;;;;;;1.42;1.05;;;-0.70;99.90;;;;;;4967289;28;20212;-82
2021/04/06 00:33:35;;;;;;;2.38;1.85;;;-0.60;99.90;;;;;;4966578;28;20287;-81
2021/04/06 00:36:02;;;;;;;2.75;1.60;;;-0.70;99.90;;;;;;4995072;28;20634;-82
2021/04/06 00:38:36;;;;;;;1.75;1.23;;;-0.70;99.90;;;;;;4987828;28;20268;-82
2021/04/06 00:41:05;;;;;;;2.25;1.65;;;-0.70;99.90;;;;;;4991010;28;20181;-81
2021/04/06 00:43:44;;;;;;;2.97;0.93;;;-0.80;99.90;;;;;;4978081;28;20185;-81
2021/04/06 00:46:15;;;;;;;1.05;0.93;;;-0.70;99.90;;;;;;5010018;28;20245;-81
2021/04/06 00:48:43;;;;;;;2.28;1.58;;;-0.70;99.90;;;;;;4992272;28;20204;-81
2021/04/06 00:51:09;;;;;;;3.47;1.42;;;-0.70;99.90;;;;;;4974519;28;20575;-82
2021/04/06 00:54:01;;;;;;;3.90;1.70;;;-0.80;99.90;;;;;;4994252;28;20184;-82
2021/04/06 00:56:37;;;;;;;3.65;1.90;;;-0.80;99.90;;;;;;4991631;28;20191;-81
2021/04/06 00:59:17;;;;;;;3.30;1.95;;;-0.80;99.90;;;;;;4968746;28;20188;-81
2021/04/06 01:01:45;;;;;;;3.92;1.63;;;-0.80;99.90;;;;;;4991322;28;20189;-81
2021/04/06 01:04:12;;;;;;;6.05;1.88;;;-0.80;99.90;;;;;;4981406;28;20216;-81
2021/04/06 01:06:55;;;;;;;3.88;1.35;;;-0.80;99.90;;;;;;4971209;28;20694;-81
2021/04/06 01:09:35;;;;;;;4.75;1.73;;;-0.80;99.90;;;;;;4978290;28;20189;-83
2021/04/06 01:12:06;;;;;;;2.10;1.58;;;-0.70;99.90;;;;;;4988209;28;20188;-83
2021/04/06 01:14:38;;;;;;;3.08;1.70;;;-0.50;99.90;;;;;;4987316;28;20195;-83
2021/04/06 01:17:06;;;;;;;3.85;1.90;;;-0.70;99.90;;;;;;4967481;28;20189;-82
2021/04/06 01:19:33;;;;;;;2.90;1.70;;;-0.80;99.90;;;;;;4964603;28;20192;-82
2021/04/06 01:22:01;;;;;;;3.08;1.90;;;-0.80;99.90;;;;;;4975644;28;20204;-82
2021/04/06 01:24:28;;;;;;;3.08;1.88;;;-0.80;99.90;;;;;;4983680;28;20196;-82
2021/04/06 01:26:58;;;;;;;3.58;2.10;;;-0.80;99.90;;;;;;4986139;28;20658;-82
2021/04/06 01:29:25;;;;;;;3.35;1.83;;;-0.90;99.90;;;;;;4969878;28;20639;-82
2021/04/06 01:31:55;;;;;;;4.20;1.70;;;-0.90;99.90;;;;;;4971454;28;20278;-82
2021/04/06 01:34:25;;;;;;;3.45;1.73;;;-0.90;99.90;;;;;;4978993;28;21104;-82
2021/04/06 01:36:53;;;;;;;2.20;1.50;;;-0.80;99.90;;;;;;4974021;28;20201;-82
2021/04/06 01:39:24;;;;;;;3.88;2.10;;;-0.90;99.90;;;;;;4958779;28;20192;-82
2021/04/06 01:41:55;;;;;;;1.98;1.80;;;-1.00;99.90;;;;;;4998779;28;20204;-82
2021/04/06 01:44:21;;;;;;;4.75;2.00;;;-0.90;99.90;;;;;;4969130;28;20294;-82
2021/04/06 01:46:48;;;;;;;7.78;1.90;;;-0.90;99.90;;;;;;4960512;28;20556;-82
2021/04/06 01:49:15;;;;;;;6.55;1.88;;;-1.00;99.90;;;;;;4979035;28;20239;-82
2021/04/06 01:51:41;;;;;;;5.70;1.50;;;-1.10;99.90;;;;;;4996358;28;20195;-82
2021/04/06 01:54:09;;;;;;;4.07;2.53;;;-1.10;99.90;;;;;;4995579;28;20518;-82
2021/04/06 01:56:53;;;;;;;4.45;2.10;;;-1.20;99.90;;;;;;4995583;28;20743;-82
2021/04/06 01:59:31;;;;;;;2.10;1.90;;;-1.20;99.90;;;;;;4976486;28;20188;-82
2021/04/06 02:01:59;;;;;;;2.33;1.75;;;-1.30;99.90;;;;;;4992707;28;20235;-82
2021/04/06 02:04:26;;;;;;;1.95;1.75;;;-1.30;99.90;;;;;;4991834;28;20188;-82
2021/04/06 02:06:53;;;;;;;2.95;1.67;;;-1.40;99.90;;;;;;4979147;28;20216;-83
2021/04/06 02:09:20;;;;;;;5.32;1.92;;;-1.40;99.90;;;;;;4971588;28;20271;-82
2021/04/06 02:11:46;;;;;;;2.95;1.75;;;-1.50;99.90;;;;;;4998094;28;20191;-82
2021/04/06 02:14:20;;;;;;;1.92;1.70;;;-1.50;99.90;;;;;;4996077;28;20202;-82
2021/04/06 02:16:56;;;;;;;2.25;2.05;;;-1.50;99.90;;;;;;5005462;28;20291;-82
2021/04/06 02:19:33;;;;;;;2.92;1.92;;;-1.50;99.90;;;;;;4984060;28;20270;-82
2021/04/06 02:22:06;;;;;;;3.35;1.95;;;-1.50;99.90;;;;;;4990114;28;20455;-82
2021/04/06 02:24:47;;;;;;;1.88;1.77;;;-1.50;99.90;;;;;;4977165;28;20199;-82
2021/04/06 02:27:24;;;;;;;2.95;1.50;;;-1.40;99.90;;;;;;4994582;28;20205;-82
2021/04/06 02:29:51;;;;;;;3.95;2.20;;;-1.50;99.90;;;;;;4977399;28;20274;-82
2021/04/06 02:32:23;;;;;;;3.80;1.77;;;-1.50;99.90;;;;;;4978647;28;20272;-82
2021/04/06 02:34:54;;;;;;;4.28;1.92;;;-1.50;99.90;;;;;;4979136;28;20571;-82
2021/04/06 02:37:28;;;;;;;3.17;1.90;;;-1.40;99.90;;;;;;4990921;28;20209;-82
2021/04/06 02:39:59;;;;;;;5.15;2.05;;;-1.30;99.90;;;;;;4976827;28;20184;-82
2021/04/06 02:42:38;;;;;;;3.65;1.70;;;-1.40;99.90;;;;;;4977861;28;20189;-83
2021/04/06 02:45:15;;;;;;;2.40;1.40;;;-1.30;99.90;;;;;;4993946;28;20282;-82
2021/04/06 02:47:45;;;;;;;3.08;2.10;;;-1.30;99.90;;;;;;4991354;28;20199;-83
2021/04/06 02:50:13;;;;;;;6.95;2.15;;;-1.40;99.90;;;;;;4978644;28;20181;-82
2021/04/06 02:52:41;;;;;;;5.15;2.40;;;-1.40;99.90;;;;;;4992312;28;20224;-82
2021/04/06 02:55:10;;;;;;;4.93;1.83;;;-1.30;99.90;;;;;;4992718;28;20231;-82
2021/04/06 02:57:47;;;;;;;3.30;2.00;;;-1.30;99.90;;;;;;4975651;28;20278;-82
2021/04/06 03:00:30;;;;;;;3.38;2.10;;;-1.40;99.90;;;;;;4991725;28;20196;-82
2021/04/06 03:03:00;;;;;;;4.60;2.28;;;-1.40;99.90;;;;;;4981231;28;20187;-82
2021/04/06 03:05:45;;;;;;;4.90;1.70;;;-1.50;99.90;;;;;;4958982;28;20221;-82
2021/04/06 03:08:11;;;;;;;4.82;1.90;;;-1.40;99.90;;;;;;4994470;28;22012;-84
2021/04/06 03:10:37;;;;;;;6.03;2.70;;;-1.40;99.90;;;;;;4987244;28;20288;-83
2021/04/06 03:15:46;;;;;;;4.15;2.20;;;-1.50;99.90;;;;;;4983886;28;20528;-83
2021/04/06 03:18:12;;;;;;;2.95;2.20;;;-1.60;99.90;;;;;;4984663;28;20186;-82
2021/04/06 03:20:39;;;;;;;3.63;2.03;;;-1.50;99.90;;;;;;4978665;28;20188;-82
2021/04/06 03:23:06;;;;;;;3.10;2.63;;;-1.50;99.90;;;;;;4990381;28;20218;-82
2021/04/06 03:25:36;;;;;;;3.75;2.33;;;-1.60;99.90;;;;;;4991415;28;20297;-82
2021/04/06 03:28:10;;;;;;;1.95;1.80;;;-1.60;99.90;;;;;;4977957;28;20591;-81
2021/04/06 03:30:37;;;;;;;2.80;2.05;;;-1.50;99.90;;;;;;4968797;28;20215;-82
2021/04/06 03:33:06;;;;;;;2.30;2.08;;;-1.50;99.90;;;;;;4990844;28;20201;-82
2021/04/06 03:35:33;;;;;;;3.65;2.63;;;-1.40;99.90;;;;;;4975273;28;20181;-82
2021/04/06 03:38:01;;;;;;;6.57;2.40;;;-1.40;99.90;;;;;;4974475;28;20591;-82
2021/04/06 03:40:31;;;;;;;3.60;2.65;;;-1.40;99.90;;;;;;4986744;28;20581;-82
2021/04/06 03:43:15;;;;;;;6.15;3.05;;;-1.40;99.90;;;;;;4994469;28;20187;-82
2021/04/06 03:45:58;;;;;;;6.68;2.40;;;-1.40;99.90;;;;;;4973756;28;21757;-82
2021/04/06 03:48:27;;;;;;;3.83;1.95;;;-1.40;99.90;;;;;;4988976;28;20204;-82
2021/04/06 03:50:56;;;;;;;3.05;2.45;;;-1.40;99.90;;;;;;4990492;28;20178;-82
2021/04/06 03:53:25;;;;;;;5.95;2.50;;;-1.40;99.90;;;;;;4997857;28;20329;-82
2021/04/06 03:56:05;;;;;;;3.88;2.50;;;-1.40;99.90;;;;;;4986695;28;20191;-82
2021/04/06 03:58:56;;;;;;;4.65;2.83;;;-1.30;99.90;;;;;;4961053;28;20247;-82
2021/04/06 04:01:27;;;;;;;5.95;2.72;;;-1.20;99.90;;;;;;4986324;28;20610;-82
2021/04/06 04:03:54;;;;;;;4.65;2.83;;;-1.20;99.90;;;;;;4987901;28;20266;-82
2021/04/06 04:06:27;;;;;;;4.85;2.60;;;-1.20;99.90;;;;;;4987394;28;20211;-83
2021/04/06 04:09:00;;;;;;;3.17;2.13;;;-1.20;99.90;;;;;;4990070;28;20746;-84
2021/04/06 04:11:26;;;;;;;7.10;2.27;;;-1.20;99.90;;;;;;4979009;28;20191;-83
2021/04/06 04:13:52;;;;;;;2.40;1.90;;;-1.10;99.90;;;;;;4961399;28;20200;-83
2021/04/06 04:16:17;;;;;;;5.90;2.30;;;-1.10;99.90;;;;;;4986846;28;20199;-83
2021/04/06 04:18:43;;;;;;;3.60;2.13;;;-1.10;99.90;;;;;;4982200;28;20191;-82
2021/04/06 04:21:12;;;;;;;2.60;2.40;;;-1.10;99.90;;;;;;4977771;28;20199;-83
2021/04/06 04:23:38;;;;;;;2.72;2.40;;;-1.10;99.90;;;;;;4987856;28;20222;-82
2021/04/06 04:26:04;;;;;;;5.70;2.47;;;-1.10;99.90;;;;;;4972380;28;20303;-82
2021/04/06 04:28:35;;;;;;;3.72;1.90;;;-1.10;99.90;;;;;;4959314;28;20324;-82
2021/04/06 04:31:06;;;;;;;3.88;1.80;;;-1.00;99.90;;;;;;4955941;28;20747;-82
2021/04/06 04:33:32;;;;;;;4.05;2.30;;;-1.10;99.90;;;;;;4983296;28;20202;-82
2021/04/06 04:35:58;;;;;;;3.73;2.73;;;-1.10;99.90;;;;;;4989767;28;20262;-81
2021/04/06 04:38:24;;;;;;;3.20;2.57;;;-1.00;99.90;;;;;;4967428;28;20201;-82
2021/04/06 04:40:49;;;;;;;6.20;2.67;;;-0.90;99.90;;;;;;4982482;28;20682;-81
2021/04/06 04:43:15;;;;;;;3.00;2.63;;;-0.90;99.90;;;;;;4973120;28;20196;-81
2021/04/06 04:45:52;;;;;;;3.10;2.57;;;-0.90;99.90;;;;;;4986345;28;20910;-81
2021/04/06 04:48:18;;;;;;;3.53;2.75;;;-0.90;99.90;;;;;;4984454;28;20274;-82
2021/04/06 04:50:44;;;;;;;3.83;1.97;;;-0.90;99.90;;;;;;4996518;28;20196;-82
2021/04/06 04:53:12;;;;;;;3.27;2.23;;;-0.90;99.90;;;;;;4977127;28;20466;-82
2021/04/06 04:55:40;;;;;;;6.80;3.53;;;-0.90;99.90;;;;;;4976673;28;20191;-82
2021/04/06 04:58:06;;;;;;;6.75;3.03;;;-0.90;99.90;;;;;;4997533;28;20211;-82
2021/04/06 05:00:39;;;;;;;6.13;2.45;;;-0.90;99.90;;;;;;4997470;28;20181;-82
2021/04/06 05:03:08;;;;;;;3.80;2.30;;;-0.90;99.90;;;;;;4997742;28;20692;-82
2021/04/06 05:05:34;;;;;;;4.63;2.78;;;-0.90;99.90;;;;;;4991512;28;20621;-82
2021/04/06 05:08:00;;;;;;;4.50;3.10;;;-0.90;99.90;;;;;;4983065;28;20204;-82
2021/04/06 05:10:25;;;;;;;4.20;2.83;;;-0.90;99.90;;;;;;4980593;28;20246;-82
2021/04/06 05:15:25;;;;;;;7.32;2.65;;;-0.90;99.90;;;;;;4993305;28;20192;-82
2021/04/06 05:17:53;;;;;;;6.72;3.42;;;-0.80;99.90;;;;;;4994721;28;20177;-82
2021/04/06 05:20:24;;;;;;;5.93;3.10;;;-0.80;99.90;;;;;;4989550;28;20747;-82
2021/04/06 05:23:16;;;;;;;6.82;3.10;;;-0.90;99.90;;;;;;4992914;28;20296;-83
2021/04/06 05:25:41;;;;;;;3.95;2.75;;;-0.80;99.90;;;;;;4989656;28;20295;-82
2021/04/06 05:28:07;;;;;;;2.70;2.40;;;-0.80;99.90;;;;;;4994340;28;20296;-82
2021/04/06 05:30:33;;;;;;;6.73;3.03;;;-0.70;99.90;;;;;;4981823;28;20543;-82
2021/04/06 05:32:59;;;;;;;4.38;3.20;;;-0.70;99.90;;;;;;4982856;28;20895;-82
2021/04/06 05:35:25;;;;;;;2.43;2.07;;;-0.80;99.90;;;;;;4995131;28;20195;-82
2021/04/06 05:37:50;;;;;;;5.30;2.33;;;-0.80;99.90;;;;;;4991516;28;20268;-82
2021/04/06 05:40:18;;;;;;;3.70;2.50;;;-0.80;99.90;;;;;;5000835;28;20202;-82
2021/04/06 05:42:49;;;;;;;6.38;2.92;;;-0.70;99.90;;;;;;5000932;28;20785;-82
2021/04/06 05:45:20;;;;;;;5.70;3.10;;;-0.70;99.90;;;;;;4997007;28;20322;-82
2021/04/06 05:47:54;;;;;;;4.78;3.15;;;-0.60;99.90;;;;;;4994139;28;20299;-83
2021/04/06 05:50:20;;;;;;;5.38;3.60;;;-0.60;99.90;;;;;;4990023;28;20555;-82
2021/04/06 05:52:56;;;;;;;2.55;2.35;;;-0.50;99.90;;;;;;4971248;28;20558;-84
2021/04/06 05:55:22;;;;;;;5.32;2.78;;;-0.50;99.90;;;;;;4965010;28;20190;-84
2021/04/06 05:57:47;;;;;;;4.23;2.80;;;-0.50;99.90;;;;;;4980992;28;20196;-83
2021/04/06 06:00:15;;;;;;;5.00;2.70;;;-0.50;99.90;;;;;;4994344;28;20188;-82
2021/04/06 06:02:41;;;;;;;5.78;3.17;;;-0.50;99.90;;;;;;4985241;28;20952;-81
2021/04/06 06:05:10;;;;;;;8.17;2.87;;;-0.50;99.90;;;;;;4978436;28;20213;-83
2021/04/06 06:07:36;;;;;;;8.45;3.38;;;-0.40;99.90;;;;;;4986930;28;20256;-82
2021/04/06 06:10:29;;;;;;;5.60;2.47;;;-0.40;99.90;;;;;;4999097;28;20212;-82
2021/04/06 06:13:12;;;;;;;3.58;2.47;;;-0.50;99.90;;;;;;4982668;28;20481;-84
2021/04/06 06:15:38;;;;;;;4.55;2.88;;;-0.40;99.90;;;;;;4982194;28;20197;-83
2021/04/06 06:18:11;;;;;;;7.90;3.27;;;-0.40;99.90;;;;;;4983359;28;20188;-83
2021/04/06 06:20:37;;;;;;;3.25;2.38;;;-0.40;99.90;;;;;;4984248;28;20475;-83
2021/04/06 06:23:22;;;;;;;5.97;2.67;;;-0.30;99.90;;;;;;4991962;28;20217;-82
2021/04/06 06:26:06;;;;;;;3.40;3.10;;;-0.30;99.90;;;;;;4966932;28;21572;-82
2021/04/06 06:28:34;;;;;;;4.40;2.80;;;-0.30;99.90;;;;;;4974154;28;20201;-82
2021/04/06 06:31:00;;;;;;;4.53;2.85;;;-0.30;99.90;;;;;;5001035;28;20595;-82
2021/04/06 06:33:28;;;;;;;2.50;2.30;;;-0.30;99.90;;;;;;4996236;28;20240;-82
2021/04/06 06:36:06;;;;;;;4.93;3.42;;;-0.20;99.90;;;;;;4995794;28;21115;-81
2021/04/06 06:38:40;;;;;;;6.28;3.00;;;-0.10;99.90;;;;;;4977523;28;20189;-81
2021/04/06 06:41:11;;;;;;;6.80;2.65;;;0.00;99.90;;;;;;4985356;28;20546;-81
2021/04/06 06:43:52;;;;;;;6.03;2.40;;;0.10;99.90;;;;;;4997245;28;21832;-81
2021/04/06 06:46:31;;;;;;;5.93;2.47;;;0.10;99.90;;;;;;4977465;28;20228;-81
2021/04/06 06:49:06;;;;;;;2.85;2.10;;;0.10;99.90;;;;;;4980860;28;20185;-82
2021/04/06 06:51:37;;;;;;;10.20;2.38;;;0.10;99.90;;;;;;4974105;28;20199;-83
2021/04/06 06:54:04;;;;;;;3.17;2.25;;;0.10;99.90;;;;;;4993978;28;20214;-82
2021/04/06 06:56:39;;;;;;;4.85;2.70;;;0.00;99.90;;;;;;4977718;28;20316;-83
2021/04/06 06:59:08;;;;;;;6.55;2.55;;;0.00;99.90;;;;;;4997793;28;20195;-82
2021/04/06 07:01:38;;;;;;;2.97;2.05;;;0.00;99.90;;;;;;4980440;28;20542;-81
2021/04/06 07:04:14;;;;;;;3.30;1.92;;;0.10;99.90;;;;;;4994034;28;20185;-82
2021/04/06 07:06:45;;;;;;;8.77;2.65;;;0.10;99.90;;;;;;4995902;28;23515;-82
2021/04/06 07:09:22;;;;;;;6.53;2.90;;;0.00;99.90;;;;;;4994269;28;20528;-83
2021/04/06 07:12:03;;;;;;;2.50;2.15;;;0.10;99.90;;;;;;4978444;28;20203;-82
2021/04/06 07:14:31;;;;;;;4.55;2.30;;;0.20;99.90;;;;;;4976580;28;20204;-82
2021/04/06 07:16:59;;;;;;;6.65;3.90;;;0.20;99.90;;;;;;4973520;28;20293;-82
2021/04/06 07:19:25;;;;;;;5.05;2.35;;;0.20;99.90;;;;;;4991372;28;20621;-81
2021/04/06 07:21:54;;;;;;;3.60;2.50;;;0.50;99.90;;;;;;4981313;28;20197;-80
2021/04/06 07:24:25;;;;;;;5.18;2.90;;;0.60;99.90;;;;;;4994271;28;20192;-81
2021/04/06 07:26:51;;;;;;;3.25;2.10;;;0.70;99.90;;;;;;4974839;28;20284;-81
2021/04/06 07:29:19;;;;;;;5.53;3.20;;;0.60;99.90;;;;;;4991470;28;20279;-82
2021/04/06 07:31:46;;;;;;;6.55;2.55;;;0.70;99.90;;;;;;4993729;28;20479;-82
2021/04/06 07:34:12;;;;;;;3.35;2.30;;;0.70;99.90;;;;;;4984716;28;20566;-81
2021/04/06 07:36:38;;;;;;;4.20;2.75;;;0.70;99.90;;;;;;4987699;28;20189;-81
2021/04/06 07:39:13;;;;;;;3.45;2.50;;;0.70;99.90;;;;;;4976683;28;20193;-81
2021/04/06 07:41:41;;;;;;;7.63;2.63;;;0.80;99.90;;;;;;4973451;28;20669;-81
2021/04/06 07:44:07;;;;;;;2.92;2.45;;;1.00;99.90;;;;;;4991458;28;21290;-82
2021/04/06 07:46:33;;;;;;;5.22;2.60;;;1.00;99.90;;;;;;4989709;28;20282;-81
2021/04/06 07:49:09;;;;;;;3.80;2.53;;;1.00;99.90;;;;;;4972945;28;20576;-80
2021/04/06 07:51:56;;;;;;;8.98;2.38;;;1.00;99.90;;;;;;4990849;28;20605;-81
2021/04/06 07:54:24;;;;;;;3.95;2.20;;;1.10;99.90;;;;;;4978630;28;20547;-81
2021/04/06 07:57:04;;;;;;;8.00;2.80;;;1.30;99.90;;;;;;4991202;28;20273;-81
2021/04/06 07:59:34;;;;;;;7.13;2.40;;;1.50;99.90;;;;;;4973626;28;20327;-81
2021/04/06 08:02:02;;;;;;;3.83;2.15;;;1.30;99.90;;;;;;5006845;28;20296;-80
2021/04/06 08:04:37;;;;;;;5.88;2.67;;;1.40;99.90;;;;;;4973688;28;20189;-80
2021/04/06 08:07:21;;;;;;;3.75;2.40;;;1.60;99.90;;;;;;4998226;28;20220;-82
2021/04/06 08:09:47;;;;;;;8.07;2.47;;;1.80;99.90;;;;;;4989931;28;20220;-82
2021/04/06 08:12:33;;;;;;;2.47;2.15;;;1.80;99.90;;;;;;4991275;28;20205;-81
2021/04/06 08:15:20;;;;;;;2.60;2.40;;;1.60;99.90;;;;;;4972539;28;20197;-80
2021/04/06 08:18:00;;;;;;;4.07;2.60;;;1.70;99.90;;;;;;4983100;28;20454;-81
2021/04/06 08:20:43;;;;;;;5.10;2.50;;;1.80;99.90;;;;;;4980020;28;20202;-79
2021/04/06 08:23:33;;;;;;;2.80;2.15;;;1.70;99.90;;;;;;4997768;28;20442;-80
2021/04/06 08:25:59;;;;;;;5.32;2.60;;;1.70;99.90;;;;;;4993260;28;20612;-80
2021/04/06 08:28:29;;;;;;;6.77;2.63;;;1.70;99.90;;;;;;4981785;28;20211;-81
2021/04/06 08:31:26;;;;;;;3.83;2.43;;;1.90;99.90;;;;;;4991365;28;21035;-80
2021/04/06 08:33:52;;;;;;;3.38;2.40;;;1.80;99.90;;;;;;4991670;28;20628;-81
2021/04/06 08:36:27;;;;;;;2.30;1.60;;;2.00;99.90;;;;;;4989007;28;20473;-82
2021/04/06 08:38:54;;;;;;;4.60;2.35;;;2.00;99.90;;;;;;4995391;28;20466;-82
2021/04/06 08:41:23;;;;;;;3.77;2.50;;;1.90;99.90;;;;;;4988875;28;20299;-81
2021/04/06 08:43:56;;;;;;;4.40;2.53;;;1.90;99.90;;;;;;4993573;28;20432;-81
2021/04/06 08:46:40;;;;;;;8.20;2.50;;;2.00;99.90;;;;;;4992225;28;20479;-80
2021/04/06 08:49:24;;;;;;;4.37;3.20;;;2.00;99.90;;;;;;4980830;28;20562;-81
2021/04/06 08:51:51;;;;;;;4.57;2.53;;;2.20;99.90;;;;;;4975894;28;20547;-80
2021/04/06 08:54:16;;;;;;;6.63;2.67;;;2.30;99.90;;;;;;4977306;28;20431;-80
2021/04/06 08:56:45;;;;;;;3.47;2.57;;;2.20;99.90;;;;;;4996188;28;20443;-83
2021/04/06 08:59:23;;;;;;;6.00;2.60;;;2.10;99.90;;;;;;4981962;28;20216;-81
2021/04/06 09:01:59;;;;;;;6.07;2.70;;;2.10;99.90;;;;;;4982938;28;20609;-80
2021/04/06 09:04:28;;;;;;;5.23;2.20;;;2.10;99.90;;;;;;4994217;28;20852;-81
2021/04/06 09:06:54;;;;;;;4.27;2.23;;;2.40;99.90;;;;;;4996524;28;20499;-81
2021/04/06 09:09:25;;;;;;;4.83;2.23;;;2.20;99.90;;;;;;4992281;28;20522;-81
2021/04/06 09:11:53;;;;;;;3.47;2.20;;;2.30;99.90;;;;;;4993757;28;20531;-80
2021/04/06 09:14:20;;;;;;;6.13;2.60;;;2.40;99.90;;;;;;4992805;28;22270;-83
2021/04/06 09:16:46;;;;;;;5.93;2.30;;;2.50;99.90;;;;;;4996358;28;20869;-81
2021/04/06 09:19:15;;;;;;;5.73;2.37;;;2.50;99.90;;;;;;4994861;28;20444;-83
2021/04/06 09:21:44;;;;;;;3.80;3.00;;;2.10;99.90;;;;;;4993257;28;20452;-81
2021/04/06 09:24:12;;;;;;;4.97;2.67;;;2.00;99.90;;;;;;4979834;28;20443;-80
2021/04/06 09:26:39;;;;;;;6.23;3.17;;;2.10;99.90;;;;;;4979572;28;20562;-80
2021/04/06 09:29:09;;;;;;;3.47;2.90;;;2.10;99.90;;;;;;4980244;28;20448;-82
2021/04/06 09:31:39;;;;;;;3.90;2.93;;;2.30;99.90;;;;;;4980234;28;20792;-81
2021/04/06 09:34:09;;;;;;;4.67;2.63;;;2.40;99.90;;;;;;4992346;28;20475;-81
2021/04/06 09:36:36;;;;;;;7.00;4.00;;;2.50;99.90;;;;;;4996922;28;20482;-82
2021/04/06 09:39:04;;;;;;;4.90;3.60;;;2.60;99.90;;;;;;4994931;28;20448;-84
2021/04/06 09:41:35;;;;;;;7.90;3.40;;;2.70;99.90;;;;;;4995276;28;20807;-80
2021/04/06 09:44:06;;;;;;;4.23;3.27;;;3.20;99.90;;;;;;4977030;28;20802;-80
2021/04/06 09:46:33;;;;;;;4.90;2.93;;;3.20;99.90;;;;;;5008288;28;20534;-81
2021/04/06 09:48:59;;;;;;;9.63;6.83;;;3.60;99.90;;;;;;4979906;28;20441;-81
2021/04/06 09:51:25;;;;;;;5.10;3.23;;;3.90;99.90;;;;;;4966090;28;20479;-81
2021/04/06 09:53:51;;;;;;;6.47;3.40;;;3.80;99.90;;;;;;4993038;28;20240;-81
2021/04/06 09:56:17;;;;;;;4.60;2.30;;;3.60;99.90;;;;;;4994990;28;20266;-80
2021/04/06 09:58:43;;;;;;;5.87;2.50;;;3.50;99.90;;;;;;4991494;28;20807;-80
2021/04/06 10:01:37;;;;;;;5.77;2.93;;;3.40;99.90;;;;;;4979947;28;20555;-81
2021/04/06 10:04:03;;;;;;;6.07;2.17;;;3.40;99.90;;;;;;4971081;28;20811;-82
2021/04/06 10:06:40;;;;;;;7.20;2.50;;;3.60;99.90;;;;;;4972729;28;20899;-82
2021/04/06 10:09:20;;;;;;;3.93;2.40;;;3.80;99.90;;;;;;4976364;28;20455;-82
2021/04/06 10:11:48;;;;;;;6.97;2.43;;;3.70;99.90;;;;;;4991793;28;20471;-81
2021/04/06 10:14:14;;;;;;;3.93;2.27;;;3.30;99.90;;;;;;4974668;28;20454;-82
2021/04/06 10:16:42;;;;;;;4.63;3.23;;;3.10;99.90;;;;;;4989346;28;20452;-80
2021/04/06 10:19:23;;;;;;;6.07;2.90;;;3.20;99.90;;;;;;4989663;28;20867;-81
2021/04/06 10:22:13;;;;;;;5.20;3.03;;;3.40;99.90;;;;;;4989660;28;20570;-81
2021/04/06 10:24:45;;;;;;;4.27;2.20;;;3.60;99.90;;;;;;4970175;28;20546;-81
2021/04/06 10:27:21;;;;;;;4.07;2.60;;;3.80;99.90;;;;;;4990267;28;20479;-81
2021/04/06 10:29:56;;;;;;;6.47;2.70;;;3.80;99.90;;;;;;4988907;28;20459;-84
2021/04/06 10:32:32;;;;;;;5.43;3.00;;;3.60;99.90;;;;;;4990315;28;20448;-82
2021/04/06 10:35:08;;;;;;;2.10;1.10;;;3.50;99.90;;;;;;4986777;28;20546;-82
2021/04/06 10:37:46;;;;;;;2.43;1.60;;;3.30;99.90;;;;;;4991726;28;20550;-83
2021/04/06 10:40:35;;;;;;;2.47;1.77;;;3.20;99.90;;;;;;4992059;28;20533;-82
2021/04/06 10:43:14;;;;;;;2.50;1.50;;;2.90;99.90;;;;;;4991864;28;20514;-82
2021/04/06 10:45:47;;;;;;;4.90;1.43;;;3.00;99.90;;;;;;4972845;28;20467;-82
2021/04/06 10:48:15;;;;;;;1.60;1.50;;;2.80;99.90;;;;;;4987189;28;20957;-82
2021/04/06 10:51:14;;;;;;;5.27;1.80;;;3.00;99.90;;;;;;4988703;28;20524;-82
2021/04/06 10:53:49;;;;;;;2.87;2.00;;;2.90;99.90;;;;;;4977245;28;20459;-82
2021/04/06 10:56:22;;;;;;;3.03;1.70;;;2.90;99.90;;;;;;4990080;28;20655;-81
2021/04/06 10:58:57;;;;;;;4.70;1.97;;;2.60;99.90;;;;;;4992602;28;20443;-83
2021/04/06 11:01:26;;;;;;;2.73;2.00;;;2.50;99.90;;;;;;4988433;28;20459;-83
2021/04/06 11:03:57;;;;;;;5.00;2.13;;;2.50;99.90;;;;;;4990412;28;20443;-82
2021/04/06 11:06:32;;;;;;;2.87;2.10;;;3.10;99.90;;;;;;4992470;28;20701;-82
2021/04/06 11:08:59;;;;;;;3.47;1.63;;;3.70;99.90;;;;;;4990891;28;20440;-82
2021/04/06 11:11:33;;;;;;;4.80;1.40;;;4.40;99.90;;;;;;5004673;28;20754;-82
2021/04/06 11:14:05;;;;;;;5.53;2.40;;;4.50;99.90;;;;;;4985275;28;20450;-82
2021/04/06 11:16:32;;;;;;;3.90;1.33;;;4.50;99.90;;;;;;4989369;28;20871;-83
2021/04/06 11:19:07;;;;;;;2.30;1.60;;;4.80;99.90;;;;;;4992370;28;20454;-82
2021/04/06 11:21:37;;;;;;;3.57;1.50;;;4.90;98.90;;;;;;4969712;28;20457;-82
2021/04/06 11:24:03;;;;;;;2.00;1.40;;;4.80;99.30;;;;;;4990664;28;20492;-82
2021/04/06 11:26:29;;;;;;;3.30;1.10;;;4.80;99.80;;;;;;4971894;28;21181;-81
2021/04/06 11:28:56;;;;;;;5.70;1.40;;;4.40;98.70;;;;;;4972975;28;20687;-82
2021/04/06 11:31:22;;;;;;;2.50;1.90;;;4.20;99.90;;;;;;4975047;28;20431;-82
2021/04/06 11:33:48;;;;;;;4.07;2.33;;;4.50;99.90;;;;;;4988524;28;20474;-82
2021/04/06 11:36:14;;;;;;;5.07;2.20;;;4.80;99.80;;;;;;4975511;28;20464;-82
2021/04/06 11:38:40;;;;;;;3.90;1.77;;;4.70;98.80;;;;;;4990620;28;20783;-81
2021/04/06 11:41:06;;;;;;;3.73;1.50;;;4.80;99.90;;;;;;4975317;28;20531;-82
2021/04/06 11:43:32;;;;;;;2.03;1.77;;;5.00;97.90;;;;;;4975854;28;20467;-82
2021/04/06 11:45:58;;;;;;;3.50;2.80;;;5.20;96.00;;;;;;4973625;28;20236;-80
2021/04/06 11:48:24;;;;;;;2.90;1.50;;;5.40;97.80;;;;;;4987605;28;20532;-80
2021/04/06 11:50:50;;;;;;;3.47;1.83;;;4.70;97.20;;;;;;4992049;28;20798;-81
2021/04/06 11:53:16;;;;;;;1.60;1.50;;;4.40;97.60;;;;;;4991886;28;20192;-81
2021/04/06 11:55:42;;;;;;;3.60;2.10;;;4.30;98.00;;;;;;4989976;28;20463;-81
2021/04/06 11:58:08;;;;;;;3.53;1.70;;;4.50;97.80;;;;;;4970916;28;20445;-82
2021/04/06 12:00:35;;;;;;;6.63;2.57;;;4.60;96.90;;;;;;4971329;28;20837;-82
2021/04/06 12:03:01;;;;;;;2.47;1.70;;;5.30;96.60;;;;;;4982401;28;20893;-81
2021/04/06 12:05:27;;;;;;;2.60;2.10;;;5.70;95.40;;;;;;4988759;28;20452;-82
2021/04/06 12:07:52;;;;;;;5.03;2.17;;;6.20;95.00;;;;;;4986798;28;20476;-81
2021/04/06 12:10:20;;;;;;;2.87;1.23;;;6.60;94.70;;;;;;4971018;28;20479;-81
2021/04/06 12:12:46;;;;;;;3.77;1.53;;;6.30;91.60;;;;;;4985430;28;20248;-80
2021/04/06 12:15:12;;;;;;;5.07;1.90;;;5.80;92.00;;;;;;4987709;28;20439;-81
2021/04/06 12:17:37;;;;;;;2.23;1.07;;;6.20;90.30;;;;;;4990331;28;20548;-81
2021/04/06 12:20:04;;;;;;;2.07;0.90;;;6.10;87.30;;;;;;4975080;28;20537;-82
2021/04/06 12:22:30;;;;;;;1.73;1.30;;;5.80;88.60;;;;;;4973254;28;20244;-82
2021/04/06 12:24:55;;;;;;;1.70;1.50;;;5.90;91.60;;;;;;4991342;28;20434;-82
2021/04/06 12:27:21;;;;;;;5.53;2.27;;;6.60;91.70;;;;;;4976018;28;20230;-81
2021/04/06 12:29:47;;;;;;;2.97;1.80;;;5.90;92.30;;;;;;4986314;28;20280;-82
2021/04/06 12:32:12;;;;;;;5.60;2.23;;;5.50;93.50;;;;;;4990845;28;20196;-81
2021/04/06 12:34:40;;;;;;;3.47;1.53;;;5.80;93.80;;;;;;4973053;28;20186;-82
2021/04/06 12:37:08;;;;;;;3.40;1.30;;;5.30;91.80;;;;;;4982841;28;20201;-81
2021/04/06 12:39:33;;;;;;;2.07;1.27;;;4.90;92.10;;;;;;4968666;28;20436;-82
2021/04/06 12:41:59;;;;;;;2.83;1.40;;;4.80;92.30;;;;;;4990294;28;20458;-82
2021/04/06 12:44:25;;;;;;;3.20;1.30;;;5.60;91.80;;;;;;4985019;28;20432;-82
2021/04/06 12:46:51;;;;;;;1.20;1.07;;;6.60;91.30;;;;;;4989401;28;21005;-82
2021/04/06 12:49:17;;;;;;;2.17;1.17;;;6.40;84.40;;;;;;4991271;28;20772;-81
2021/04/06 12:51:43;;;;;;;3.10;1.63;;;6.30;85.40;;;;;;4992445;28;20377;-81
2021/04/06 12:54:10;;;;;;;2.60;1.60;;;6.40;84.00;;;;;;4986441;28;20999;-81
2021/04/06 12:56:38;;;;;;;3.30;1.07;;;6.20;84.80;;;;;;4994000;28;20221;-80
2021/04/06 12:59:04;;;;;;;1.73;1.47;;;6.40;82.50;;;;;;4990602;28;21056;-80
2021/04/06 13:01:33;;;;;;;5.17;1.47;;;6.80;80.90;;;;;;4987320;28;20455;-82
2021/04/06 13:03:58;;;;;;;1.30;1.07;;;6.80;77.80;;;;;;4973426;28;20191;-81
2021/04/06 13:06:24;;;;;;;4.43;1.10;;;6.10;68.30;;;;;;4987995;28;20484;-81
2021/04/06 13:09:02;;;;;;;1.10;1.10;;;6.50;64.40;;;;;;4972200;28;20253;-80
2021/04/06 13:11:27;;;;;;;1.13;0.83;;;6.40;63.70;;;;;;4969907;28;20669;-80
2021/04/06 13:13:55;;;;;;;1.87;1.27;;;6.80;66.60;;;;;;4973395;28;20842;-80
2021/04/06 13:16:20;;;;;;;0.87;0.77;;;6.80;58.20;;;;;;4968899;28;20196;-80